| time (UTC) | temp F | wind direction | speed knots | gust knots | rain 1hr in | rain 24hr in | rain mn in | humidity % | barometer mb |
| 20260508220158 | 58 | 10 | 1.7 | 7.0 | 0.00 | 0.00 | 0.00 | 44 | 1003.8 |
| 20260508215144 | 59 | 328 | 1.7 | 9.6 | 0.00 | 0.00 | 0.00 | 44 | 1003.6 |
| 20260508214203 | 59 | 318 | 1.7 | 8.7 | 0.00 | 0.00 | 0.00 | 41 | 1003.5 |
| 20260508213227 | 58 | 15 | 2.6 | 10.4 | 0.00 | 0.00 | 0.00 | 42 | 1003.5 |
| 20260508212202 | 59 | 0 | 2.6 | 10.4 | 0.00 | 0.00 | 0.00 | 39 | 1003.1 |
| 20260508211216 | 59 | 44 | 1.7 | 10.4 | 0.00 | 0.00 | 0.00 | 40 | 1003.1 |
| 20260508210154 | 60 | 328 | 3.5 | 10.4 | 0.00 | 0.00 | 0.00 | 36 | 1003.0 |
| 20260508205138 | 61 | 274 | 2.6 | 10.4 | 0.00 | 0.00 | 0.00 | 37 | 1002.9 |
| 20260508204122 | 60 | 24 | 1.7 | 8.7 | 0.00 | 0.00 | 0.00 | 42 | 1002.8 |
| 20260508203048 | 60 | 0 | 3.5 | 9.6 | 0.00 | 0.00 | 0.00 | 41 | 1002.7 |
| 20260508202041 | 61 | 336 | 1.7 | 12.2 | 0.00 | 0.00 | 0.00 | 41 | 1002.6 |
| 20260508201056 | 60 | 320 | 3.5 | 12.2 | 0.00 | 0.00 | 0.00 | 42 | 1002.4 |
| 20260508200104 | 59 | 327 | 2.6 | 10.4 | 0.00 | 0.00 | 0.00 | 46 | 1002.5 |
| 20260508195107 | 59 | 14 | 3.5 | 10.4 | 0.00 | 0.00 | 0.00 | 47 | 1002.4 |
| 20260508192944 | 60 | 5 | 3.5 | 11.3 | 0.00 | 0.00 | 0.00 | 45 | 1002.3 |
| 20260508191919 | 61 | 21 | 4.3 | 11.3 | 0.00 | 0.00 | 0.00 | 45 | 1002.1 |
| 20260508190939 | 61 | 13 | 3.5 | 11.3 | 0.00 | 0.00 | 0.00 | 47 | 1002.1 |
| 20260508185945 | 60 | 273 | 3.5 | 8.7 | 0.00 | 0.00 | 0.00 | 47 | 1002.1 |
| 20260508184945 | 62 | 336 | 2.6 | 11.3 | 0.00 | 0.00 | 0.00 | 49 | 1001.9 |
| 20260508183929 | 61 | 355 | 3.5 | 11.3 | 0.00 | 0.00 | 0.00 | 50 | 1001.9 |
| 20260508182909 | 61 | 347 | 2.6 | 9.6 | 0.00 | 0.00 | 0.00 | 52 | 1001.9 |
| 20260508181859 | 60 | 0 | 2.6 | 9.6 | 0.00 | 0.00 | 0.00 | 58 | 1002.0 |
| 20260508180833 | 60 | 16 | 4.3 | 9.6 | 0.00 | 0.00 | 0.00 | 55 | 1001.9 |
| 20260508175827 | 59 | 0 | 2.6 | 8.7 | 0.00 | 0.01 | 0.00 | 60 | 1002.0 |
| 20260508174818 | 58 | 26 | 1.7 | 7.8 | 0.00 | 0.01 | 0.00 | 63 | 1001.9 |
| 20260508173758 | 58 | 5 | 4.3 | 12.2 | 0.00 | 0.02 | 0.00 | 60 | 1002.0 |
| 20260508172742 | 60 | 346 | 3.5 | 12.2 | 0.00 | 0.03 | 0.00 | 59 | 1002.1 |
| 20260508171738 | 59 | 315 | 1.7 | 9.6 | 0.00 | 0.04 | 0.00 | 63 | 1002.1 |
| 20260508165628 | 60 | 355 | 0.9 | 7.8 | 0.00 | 0.07 | 0.00 | 59 | 1002.0 |
| 20260508164604 | 61 | 9 | 2.6 | 7.8 | 0.00 | 0.07 | 0.00 | 57 | 1002.0 |
| 20260508163557 | 60 | 348 | 0.9 | 4.3 | 0.00 | 0.08 | 0.00 | 59 | 1002.0 |
| 20260508162540 | 61 | 281 | 0.9 | 4.3 | 0.00 | 0.08 | 0.00 | 57 | 1002.1 |
| 20260508161533 | 62 | 215 | 0.0 | 2.6 | 0.00 | 0.11 | 0.00 | 59 | 1002.0 |
| 20260508160515 | 62 | 234 | 0.9 | 8.7 | 0.00 | 0.17 | 0.00 | 57 | 1002.1 |
| 20260508155537 | 61 | 211 | 2.6 | 8.7 | 0.00 | 0.35 | 0.00 | 63 | 1002.2 |
| 20260508154544 | 60 | 170 | 2.6 | 8.7 | 0.00 | 0.44 | 0.00 | 68 | 1002.3 |
| 20260508153605 | 59 | 194 | 2.6 | 7.0 | 0.00 | 0.53 | 0.00 | 72 | 1002.5 |
| 20260508151449 | 57 | 178 | 0.0 | 5.2 | 0.00 | 0.59 | 0.00 | 73 | 1002.7 |
| 20260508150451 | 57 | 30 | 0.0 | 0.0 | 0.00 | 0.59 | 0.00 | 73 | 1002.8 |
| 20260507224236 | 53 | 194 | 0.0 | 0.0 | 0.00 | 0.90 | 0.90 | 96 | 1002.4 |
| 20260507223205 | 54 | 194 | 0.0 | 0.0 | 0.00 | 0.90 | 0.90 | 97 | 1002.4 |
| 20260507222214 | 54 | 220 | 0.0 | 0.0 | 0.00 | 0.90 | 0.90 | 97 | 1002.3 |
| 20260507221239 | 54 | 220 | 0.0 | 0.0 | 0.00 | 0.90 | 0.90 | 97 | 1002.4 |